Time;durP1;ratioP1;P1;durP2;ratioP2;P2;SDS_P1;SDS_P2;PMS_P1;PMS_P2;Temp;Humidity;BMP_temperature;BMP_pressure;BME280_temperature;BME280_humidity;BME280_pressure;Samples;Min_cycle;Max_cycle;Signal;HPM_P1;HPM_P2
2023/06/20 00:01:49;;;;;;;2.90;2.30;;;27.70;39.90;;;;;;5040628;28;20108;-61
2023/06/20 00:04:15;;;;;;;3.78;2.70;;;27.70;39.90;;;;;;5024259;28;20051;-61
2023/06/20 00:06:40;;;;;;;2.55;2.30;;;27.70;39.90;;;;;;5043693;28;20032;-61
2023/06/20 00:09:06;;;;;;;4.13;2.85;;;27.70;39.90;;;;;;5039624;28;20053;-61
2023/06/20 00:11:32;;;;;;;2.35;2.13;;;27.70;39.90;;;;;;5045301;28;20059;-63
2023/06/20 00:13:58;;;;;;;3.88;2.67;;;27.70;39.90;;;;;;5044625;28;20083;-60
2023/06/20 00:16:24;;;;;;;3.22;2.47;;;27.70;40.00;;;;;;5045045;28;20081;-62
2023/06/20 00:18:53;;;;;;;2.70;2.30;;;27.70;40.00;;;;;;5042696;28;20156;-63
2023/06/20 00:21:21;;;;;;;2.67;2.45;;;27.60;40.00;;;;;;5043960;28;20108;-60
2023/06/20 00:23:47;;;;;;;3.33;2.80;;;27.60;40.00;;;;;;5045701;28;20420;-62
2023/06/20 00:26:13;;;;;;;3.70;2.78;;;27.60;40.00;;;;;;5039299;28;20038;-60
2023/06/20 00:28:39;;;;;;;3.55;2.80;;;27.60;40.00;;;;;;5046988;28;20359;-62
2023/06/20 00:31:05;;;;;;;3.67;2.70;;;27.70;40.00;;;;;;5024762;28;20444;-60
2023/06/20 00:33:36;;;;;;;3.30;2.50;;;27.60;40.00;;;;;;5021231;28;20097;-63
2023/06/20 00:36:02;;;;;;;3.42;2.55;;;27.60;40.00;;;;;;5028815;28;20029;-62
2023/06/20 00:38:29;;;;;;;2.60;2.28;;;27.60;40.00;;;;;;5027385;28;20028;-59
2023/06/20 00:40:57;;;;;;;3.38;2.60;;;27.60;40.00;;;;;;5042668;28;20044;-60
2023/06/20 00:43:23;;;;;;;3.22;2.90;;;27.60;40.00;;;;;;5040219;28;20041;-62
2023/06/20 00:45:50;;;;;;;3.80;2.65;;;27.60;40.00;;;;;;5048591;28;20031;-63
2023/06/20 00:48:17;;;;;;;4.38;2.78;;;27.60;40.00;;;;;;5023835;28;20380;-61
2023/06/20 00:50:44;;;;;;;3.10;2.42;;;27.60;40.00;;;;;;5024095;28;20147;-61
2023/06/20 00:53:10;;;;;;;4.15;2.50;;;27.60;40.00;;;;;;5018203;28;20112;-65
2023/06/20 00:55:37;;;;;;;2.72;2.33;;;27.60;40.00;;;;;;5024019;28;20496;-60
2023/06/20 00:58:04;;;;;;;2.22;2.03;;;27.60;40.00;;;;;;5041413;28;20100;-61
2023/06/20 01:00:35;;;;;;;6.15;2.78;;;27.60;40.00;;;;;;5045388;28;20047;-65
2023/06/20 01:03:10;;;;;;;2.53;2.33;;;27.60;40.00;;;;;;5038356;28;20034;-63
2023/06/20 01:05:36;;;;;;;3.03;2.58;;;27.60;40.00;;;;;;5007973;28;20060;-63
2023/06/20 01:08:17;;;;;;;3.20;2.80;;;27.60;40.00;;;;;;5026197;28;20018;-62
2023/06/20 01:10:55;;;;;;;2.58;2.28;;;27.60;40.00;;;;;;5023706;28;20025;-62
2023/06/20 01:13:39;;;;;;;3.30;2.88;;;27.50;40.00;;;;;;5024998;28;20471;-64
2023/06/20 01:16:24;;;;;;;4.35;2.47;;;27.50;40.00;;;;;;5037055;28;20064;-61
2023/06/20 01:19:09;;;;;;;2.97;2.42;;;27.50;40.00;;;;;;5040572;28;20436;-59
2023/06/20 01:21:53;;;;;;;3.47;2.65;;;27.50;40.00;;;;;;5023741;28;20297;-62
2023/06/20 01:24:25;;;;;;;3.03;2.67;;;27.50;40.00;;;;;;5023652;28;20098;-62
2023/06/20 01:27:17;;;;;;;3.33;2.50;;;27.50;40.00;;;;;;5043538;28;20120;-61
2023/06/20 01:30:12;;;;;;;2.60;2.35;;;27.50;40.00;;;;;;5026517;28;20039;-61
2023/06/20 01:32:45;;;;;;;3.10;2.70;;;27.50;40.00;;;;;;5039498;28;20037;-61
2023/06/20 01:35:15;;;;;;;3.17;2.88;;;27.50;40.00;;;;;;5021608;28;20062;-60
2023/06/20 01:37:46;;;;;;;3.38;2.70;;;27.40;40.00;;;;;;5039217;28;20460;-60
2023/06/20 01:40:18;;;;;;;2.85;2.50;;;27.50;40.10;;;;;;5019904;28;20044;-61
2023/06/20 01:42:45;;;;;;;3.35;2.75;;;27.50;40.00;;;;;;5042835;28;20195;-61
2023/06/20 01:45:13;;;;;;;3.67;3.05;;;27.50;40.00;;;;;;5044280;28;20084;-63
2023/06/20 01:47:40;;;;;;;5.50;2.40;;;27.40;40.00;;;;;;5039437;28;20404;-62
2023/06/20 01:50:07;;;;;;;4.45;2.63;;;27.40;40.00;;;;;;5044974;28;20092;-62
2023/06/20 01:52:35;;;;;;;3.25;2.65;;;27.40;40.00;;;;;;5043470;28;20089;-61
2023/06/20 01:55:06;;;;;;;2.90;2.40;;;27.40;40.00;;;;;;5045608;28;20131;-60
2023/06/20 01:57:34;;;;;;;3.58;2.83;;;27.40;40.00;;;;;;5018897;28;20096;-59
2023/06/20 02:00:05;;;;;;;3.13;2.30;;;27.40;40.00;;;;;;5022392;28;20099;-60
2023/06/20 02:02:39;;;;;;;3.42;2.80;;;27.40;40.00;;;;;;5039120;28;20390;-59
2023/06/20 02:05:06;;;;;;;4.85;2.85;;;27.40;40.00;;;;;;5024120;28;20033;-62
2023/06/20 02:07:34;;;;;;;3.42;2.72;;;27.40;40.00;;;;;;5016680;28;20021;-63
2023/06/20 02:10:03;;;;;;;2.78;2.35;;;27.40;40.10;;;;;;5023429;28;20021;-59
2023/06/20 02:12:31;;;;;;;3.33;3.03;;;27.40;40.10;;;;;;5040026;28;20388;-62
2023/06/20 02:14:57;;;;;;;4.30;3.35;;;27.40;40.10;;;;;;5026315;28;20044;-61
2023/06/20 02:17:29;;;;;;;3.47;2.80;;;27.40;40.10;;;;;;5039683;28;20099;-59
2023/06/20 02:19:55;;;;;;;4.53;2.90;;;27.40;40.20;;;;;;5043633;28;20047;-62
2023/06/20 02:22:25;;;;;;;3.15;2.67;;;27.40;40.20;;;;;;5038755;28;20117;-62
2023/06/20 02:24:52;;;;;;;3.72;2.60;;;27.40;40.20;;;;;;5041656;28;20099;-61
2023/06/20 02:27:21;;;;;;;3.47;2.60;;;27.40;40.30;;;;;;5025473;28;20029;-63
2023/06/20 02:29:50;;;;;;;3.53;2.92;;;27.40;40.30;;;;;;5038053;28;20025;-61
2023/06/20 02:32:19;;;;;;;4.43;2.78;;;27.40;40.30;;;;;;5042906;28;20112;-60
2023/06/20 02:34:48;;;;;;;3.38;2.80;;;27.40;40.30;;;;;;5040016;28;20136;-59
2023/06/20 02:37:15;;;;;;;3.53;2.53;;;27.30;40.30;;;;;;5029163;28;20032;-61
2023/06/20 02:39:40;;;;;;;3.55;3.08;;;27.40;40.40;;;;;;5040163;28;20452;-61
2023/06/20 02:42:06;;;;;;;3.70;2.53;;;27.40;40.40;;;;;;5039050;28;20061;-62
2023/06/20 02:44:32;;;;;;;3.40;2.80;;;27.30;40.40;;;;;;5037734;28;20419;-61
2023/06/20 02:47:29;;;;;;;3.00;2.70;;;27.30;40.40;;;;;;5020485;28;20050;-59
2023/06/20 02:50:43;;;;;;;3.92;2.97;;;27.30;40.50;;;;;;5039328;28;20041;-60
2023/06/20 02:53:17;;;;;;;3.80;3.00;;;27.30;40.50;;;;;;5005326;28;20325;-60
2023/06/20 02:55:50;;;;;;;3.00;2.67;;;27.30;40.50;;;;;;5041603;28;20421;-62
2023/06/20 02:58:21;;;;;;;3.38;2.97;;;27.30;40.60;;;;;;5022321;28;20110;-59
2023/06/20 03:00:50;;;;;;;3.15;2.63;;;27.30;40.60;;;;;;5019378;28;20026;-63
2023/06/20 03:03:24;;;;;;;3.05;2.72;;;27.30;40.60;;;;;;5017761;28;20108;-62
2023/06/20 03:05:58;;;;;;;2.85;2.53;;;27.30;40.60;;;;;;5021669;28;20398;-61
2023/06/20 03:08:27;;;;;;;3.55;2.65;;;27.30;40.70;;;;;;5019313;28;20076;-60
2023/06/20 03:10:55;;;;;;;2.70;2.33;;;27.30;40.70;;;;;;5021585;28;20097;-62
2023/06/20 03:13:21;;;;;;;3.03;2.60;;;27.30;40.80;;;;;;5012631;28;20029;-60
2023/06/20 03:15:51;;;;;;;3.45;2.80;;;27.20;40.70;;;;;;5024114;28;20069;-61
2023/06/20 03:18:19;;;;;;;2.92;2.63;;;27.30;40.80;;;;;;5023630;28;20124;-61
2023/06/20 03:20:48;;;;;;;2.90;2.60;;;27.30;40.90;;;;;;5018726;28;20131;-62
2023/06/20 03:23:15;;;;;;;3.40;2.70;;;27.20;40.80;;;;;;5020438;28;20049;-60
2023/06/20 03:25:43;;;;;;;4.38;3.05;;;27.30;40.90;;;;;;5024683;28;20021;-61
2023/06/20 03:28:09;;;;;;;3.55;2.63;;;27.20;40.90;;;;;;5027857;28;20475;-64
2023/06/20 03:30:36;;;;;;;3.50;3.05;;;27.30;40.90;;;;;;5044962;28;20485;-60
2023/06/20 03:33:04;;;;;;;3.58;2.78;;;27.20;41.00;;;;;;5024491;28;20152;-63
2023/06/20 03:35:32;;;;;;;4.50;3.05;;;27.20;41.00;;;;;;5035891;28;20052;-61
2023/06/20 03:37:59;;;;;;;4.93;3.22;;;27.20;41.10;;;;;;5023638;28;20044;-60
2023/06/20 03:40:25;;;;;;;3.08;2.78;;;27.30;41.20;;;;;;5052664;28;20025;-62
2023/06/20 03:42:52;;;;;;;3.78;3.00;;;27.30;41.20;;;;;;5033844;28;20045;-61
2023/06/20 03:45:19;;;;;;;4.07;3.20;;;27.20;41.10;;;;;;5035793;28;20047;-62
2023/06/20 03:47:46;;;;;;;3.80;2.85;;;27.30;41.20;;;;;;5035953;28;20100;-62
2023/06/20 03:50:13;;;;;;;3.80;3.20;;;27.20;41.20;;;;;;5022441;28;20033;-61
2023/06/20 03:52:41;;;;;;;3.15;2.85;;;27.20;41.20;;;;;;4999725;28;20138;-61
2023/06/20 03:55:08;;;;;;;3.35;2.80;;;27.20;41.20;;;;;;5015778;28;20111;-62
2023/06/20 03:57:34;;;;;;;3.50;3.17;;;27.20;41.20;;;;;;5030144;28;20329;-62
2023/06/20 04:00:01;;;;;;;3.72;2.97;;;27.20;41.30;;;;;;5015388;28;20056;-61
2023/06/20 04:02:29;;;;;;;4.30;3.38;;;27.20;41.30;;;;;;5016147;28;20414;-61
2023/06/20 04:04:56;;;;;;;3.63;3.20;;;27.20;41.30;;;;;;5015582;28;20064;-61
2023/06/20 04:07:22;;;;;;;3.28;2.97;;;27.20;41.30;;;;;;5033716;28;20049;-63
2023/06/20 04:09:51;;;;;;;3.90;2.95;;;27.20;41.30;;;;;;5015878;28;20355;-63
2023/06/20 04:12:18;;;;;;;4.75;3.30;;;27.20;41.40;;;;;;5041110;28;20039;-60
2023/06/20 04:14:44;;;;;;;3.47;3.05;;;27.20;41.40;;;;;;5035651;28;20107;-60
2023/06/20 04:17:10;;;;;;;3.88;2.92;;;27.20;41.40;;;;;;5052940;28;20033;-63
2023/06/20 04:19:36;;;;;;;3.30;3.00;;;27.20;41.40;;;;;;5053172;28;20017;-61
2023/06/20 04:22:02;;;;;;;3.60;2.72;;;27.20;41.50;;;;;;5035089;28;20387;-61
2023/06/20 04:24:28;;;;;;;3.25;2.90;;;27.20;41.50;;;;;;5035161;28;20021;-61
2023/06/20 04:26:54;;;;;;;3.63;3.00;;;27.20;41.50;;;;;;5024021;28;20039;-61
2023/06/20 04:29:20;;;;;;;3.55;3.10;;;27.20;41.50;;;;;;5016376;28;20135;-61
2023/06/20 04:31:49;;;;;;;4.03;3.33;;;27.20;41.60;;;;;;5035255;28;20392;-60
2023/06/20 04:34:15;;;;;;;4.03;3.17;;;27.20;41.60;;;;;;5014386;28;20187;-60
2023/06/20 04:36:41;;;;;;;5.32;3.03;;;27.20;41.70;;;;;;5031523;28;20481;-62
2023/06/20 04:39:11;;;;;;;3.67;2.88;;;27.10;41.60;;;;;;5015209;28;20041;-61
2023/06/20 04:41:37;;;;;;;5.53;3.47;;;27.20;41.70;;;;;;5015209;28;20098;-60
2023/06/20 04:44:03;;;;;;;3.65;3.08;;;27.10;41.70;;;;;;5032548;28;20177;-62
2023/06/20 04:46:29;;;;;;;3.55;3.05;;;27.20;41.80;;;;;;5033939;28;20049;-63
2023/06/20 04:48:55;;;;;;;4.30;3.20;;;27.20;41.80;;;;;;5025432;28;20048;-63
2023/06/20 04:51:21;;;;;;;4.10;3.40;;;27.20;41.90;;;;;;5014559;28;20049;-61
2023/06/20 04:53:49;;;;;;;4.68;3.45;;;27.10;41.80;;;;;;5032393;28;20456;-60
2023/06/20 04:56:16;;;;;;;4.25;3.00;;;27.10;41.90;;;;;;5032849;28;20140;-62
2023/06/20 04:58:45;;;;;;;4.22;3.40;;;27.10;41.90;;;;;;5032373;28;20037;-61
2023/06/20 05:01:11;;;;;;;4.32;3.58;;;27.10;41.90;;;;;;5014835;28;20362;-60
2023/06/20 05:03:37;;;;;;;4.38;3.15;;;27.10;42.00;;;;;;5025537;28;20032;-63
2023/06/20 05:06:03;;;;;;;5.15;4.10;;;27.10;42.00;;;;;;5018170;28;20044;-60
2023/06/20 05:08:29;;;;;;;4.47;3.50;;;27.10;42.00;;;;;;5034450;28;20143;-59
2023/06/20 05:10:56;;;;;;;4.93;3.55;;;27.10;42.10;;;;;;5034464;28;20056;-61
2023/06/20 05:13:22;;;;;;;4.90;3.55;;;27.10;42.10;;;;;;5052175;28;20044;-61
2023/06/20 05:15:48;;;;;;;4.30;3.80;;;27.10;42.20;;;;;;5052119;28;20045;-59
2023/06/20 05:18:14;;;;;;;5.03;4.03;;;27.10;42.20;;;;;;5050093;28;20112;-61
2023/06/20 05:20:40;;;;;;;5.05;3.88;;;27.10;42.30;;;;;;5050950;28;20101;-63
2023/06/20 05:23:06;;;;;;;4.68;4.03;;;27.10;42.30;;;;;;5032319;28;20030;-59
2023/06/20 05:25:32;;;;;;;4.78;3.80;;;27.10;42.30;;;;;;5035603;28;20051;-63
2023/06/20 05:27:58;;;;;;;4.55;3.80;;;27.10;42.40;;;;;;5052143;28;20317;-63
2023/06/20 05:30:24;;;;;;;5.68;4.10;;;27.10;42.40;;;;;;5051945;28;20039;-64
2023/06/20 05:32:53;;;;;;;6.30;4.30;;;27.10;42.50;;;;;;5050710;28;20039;-61
2023/06/20 05:35:19;;;;;;;5.20;4.60;;;27.10;42.50;;;;;;5051474;28;20033;-63
2023/06/20 05:37:49;;;;;;;4.68;4.07;;;27.10;42.50;;;;;;5051763;28;20400;-60
2023/06/20 05:40:15;;;;;;;5.38;4.25;;;27.10;42.60;;;;;;5052099;28;20025;-62
2023/06/20 05:42:41;;;;;;;5.00;4.50;;;27.10;42.60;;;;;;5033532;28;20125;-61
2023/06/20 05:45:08;;;;;;;4.82;4.00;;;27.10;42.70;;;;;;5034027;28;20045;-59
2023/06/20 05:47:35;;;;;;;4.50;3.90;;;27.10;42.70;;;;;;5050829;28;20408;-61
2023/06/20 05:50:00;;;;;;;5.32;3.95;;;27.10;42.80;;;;;;5050137;28;20352;-65
2023/06/20 05:52:27;;;;;;;4.65;3.88;;;27.10;42.80;;;;;;5051373;28;20029;-60
2023/06/20 05:54:53;;;;;;;5.32;4.40;;;27.10;42.80;;;;;;5050585;28;20082;-63
2023/06/20 05:57:20;;;;;;;4.90;4.22;;;27.10;42.80;;;;;;5051827;28;20029;-62
2023/06/20 05:59:47;;;;;;;5.18;4.18;;;27.10;42.90;;;;;;5051365;28;20051;-63
2023/06/20 06:02:13;;;;;;;6.10;4.47;;;27.10;42.90;;;;;;5051241;28;20463;-62
2023/06/20 06:04:43;;;;;;;4.40;3.85;;;27.10;43.00;;;;;;5047482;28;20116;-60
2023/06/20 06:07:10;;;;;;;5.15;4.65;;;27.10;43.00;;;;;;5031767;28;20033;-63
2023/06/20 06:09:36;;;;;;;5.68;4.10;;;27.10;43.10;;;;;;5035904;28;20427;-62
2023/06/20 06:12:03;;;;;;;5.10;4.25;;;27.10;43.20;;;;;;5050841;28;20423;-64
2023/06/20 06:14:29;;;;;;;6.00;4.10;;;27.10;43.20;;;;;;5051207;28;20329;-64
2023/06/20 06:16:55;;;;;;;8.35;3.90;;;27.10;43.30;;;;;;5050874;28;20033;-64
2023/06/20 06:19:21;;;;;;;4.95;3.75;;;27.10;43.40;;;;;;5051165;28;20080;-65
2023/06/20 06:21:47;;;;;;;4.72;4.05;;;27.10;43.40;;;;;;5051000;28;20302;-61
2023/06/20 06:24:14;;;;;;;8.05;4.25;;;27.10;44.10;;;;;;5041892;28;20367;-65
2023/06/20 06:26:40;;;;;;;4.32;3.90;;;27.10;43.60;;;;;;5042462;28;20047;-64
2023/06/20 06:29:06;;;;;;;5.53;4.45;;;27.20;43.70;;;;;;5041060;28;20041;-63
2023/06/20 06:31:35;;;;;;;4.40;3.80;;;27.10;43.70;;;;;;5041329;28;20124;-61
2023/06/20 06:34:04;;;;;;;5.38;4.05;;;27.20;43.80;;;;;;5038737;28;20024;-62
2023/06/20 06:36:31;;;;;;;4.00;3.60;;;27.30;43.80;;;;;;4995926;28;20119;-64
2023/06/20 06:38:59;;;;;;;4.15;3.13;;;27.30;43.70;;;;;;5049977;28;20028;-65
2023/06/20 06:41:26;;;;;;;4.07;3.53;;;27.40;43.70;;;;;;5040972;28;20112;-63
2023/06/20 06:43:52;;;;;;;4.60;3.47;;;27.40;43.70;;;;;;5046243;28;20048;-62
2023/06/20 06:46:17;;;;;;;4.30;3.85;;;27.40;43.70;;;;;;5024339;28;20142;-61
2023/06/20 06:48:43;;;;;;;4.97;3.80;;;27.40;43.70;;;;;;5039119;28;20071;-62
2023/06/20 06:51:09;;;;;;;4.28;3.40;;;27.40;43.70;;;;;;5021010;28;20124;-61
2023/06/20 06:53:35;;;;;;;4.20;3.38;;;27.50;43.70;;;;;;5043503;28;20065;-63
2023/06/20 06:56:01;;;;;;;3.67;3.33;;;27.50;43.60;;;;;;5034060;28;20025;-64
2023/06/20 06:58:27;;;;;;;3.95;3.50;;;27.50;43.60;;;;;;5041820;28;20711;-63
2023/06/20 07:00:54;;;;;;;3.50;3.15;;;27.50;43.50;;;;;;5053232;28;20116;-61
2023/06/20 07:03:19;;;;;;;5.15;3.42;;;27.50;43.50;;;;;;5045854;28;20132;-61
2023/06/20 07:05:45;;;;;;;4.50;3.38;;;27.60;43.60;;;;;;5046391;28;20116;-60
2023/06/20 07:08:11;;;;;;;4.57;3.40;;;27.60;43.50;;;;;;5046366;28;20110;-61
2023/06/20 07:10:37;;;;;;;4.10;3.20;;;27.60;43.50;;;;;;5039556;28;20044;-62
2023/06/20 07:13:05;;;;;;;3.65;3.22;;;27.60;43.50;;;;;;5044555;28;20076;-61
2023/06/20 07:15:32;;;;;;;4.78;3.47;;;27.60;43.40;;;;;;5045704;28;20041;-61
2023/06/20 07:17:58;;;;;;;4.55;3.45;;;27.60;43.40;;;;;;5040257;28;20034;-61
2023/06/20 07:20:24;;;;;;;4.65;3.50;;;27.60;43.40;;;;;;5041820;28;20029;-62
2023/06/20 07:22:50;;;;;;;3.72;3.38;;;27.60;43.40;;;;;;5044152;28;20099;-61
2023/06/20 07:25:18;;;;;;;3.50;3.20;;;27.70;43.50;;;;;;5043302;28;20037;-63
2023/06/20 07:27:44;;;;;;;3.65;3.15;;;27.70;43.50;;;;;;5045495;28;20029;-62
2023/06/20 07:30:10;;;;;;;3.50;3.20;;;27.70;43.40;;;;;;5045893;28;20123;-63
2023/06/20 07:32:36;;;;;;;3.85;3.45;;;27.70;43.50;;;;;;5045708;28;20161;-67
2023/06/20 07:35:03;;;;;;;5.00;3.72;;;27.70;43.40;;;;;;5023243;28;20391;-63
2023/06/20 07:37:29;;;;;;;4.25;3.80;;;27.70;43.50;;;;;;5050469;28;20029;-62
2023/06/20 07:39:54;;;;;;;3.78;3.28;;;27.70;43.60;;;;;;5045545;28;20047;-64
2023/06/20 07:42:20;;;;;;;4.20;3.80;;;27.70;43.70;;;;;;5049606;28;20065;-63
2023/06/20 07:44:47;;;;;;;3.83;3.20;;;27.70;43.70;;;;;;5051079;28;20117;-62
2023/06/20 07:47:13;;;;;;;4.00;3.20;;;27.70;43.70;;;;;;5046591;28;20047;-63
2023/06/20 07:49:39;;;;;;;3.85;3.10;;;27.70;43.70;;;;;;5051948;28;20084;-63
2023/06/20 07:52:05;;;;;;;4.20;3.20;;;27.70;43.70;;;;;;5032250;28;20075;-64
2023/06/20 07:54:31;;;;;;;4.30;3.00;;;27.80;43.70;;;;;;5051095;28;20029;-61
2023/06/20 07:56:57;;;;;;;4.20;2.85;;;27.70;44.30;;;;;;5051512;28;20553;-65
2023/06/20 07:59:23;;;;;;;4.13;3.25;;;27.70;43.70;;;;;;5052940;28;20048;-63
2023/06/20 08:01:49;;;;;;;4.78;3.38;;;27.80;43.80;;;;;;5051112;28;20082;-60
2023/06/20 08:04:15;;;;;;;4.97;3.60;;;27.80;43.90;;;;;;5050840;28;20084;-62
2023/06/20 08:06:41;;;;;;;2.95;2.65;;;27.80;43.90;;;;;;5048505;28;20062;-63
2023/06/20 08:09:07;;;;;;;3.63;3.20;;;27.80;43.90;;;;;;5022791;28;20069;-62
2023/06/20 08:11:34;;;;;;;3.53;3.22;;;27.80;44.00;;;;;;5041654;28;20111;-63
2023/06/20 08:14:00;;;;;;;4.72;3.15;;;27.80;44.00;;;;;;5044892;28;20026;-60
2023/06/20 08:16:26;;;;;;;4.75;3.13;;;27.80;44.10;;;;;;5044864;28;20080;-63
2023/06/20 08:18:52;;;;;;;4.25;3.17;;;27.80;44.10;;;;;;5045629;28;20037;-63
2023/06/20 08:21:17;;;;;;;3.78;3.38;;;27.80;44.10;;;;;;5047220;28;20079;-61
2023/06/20 08:23:45;;;;;;;3.53;3.10;;;27.80;44.20;;;;;;5026164;28;20044;-62
2023/06/20 08:26:11;;;;;;;3.40;3.10;;;27.80;44.30;;;;;;5029288;28;20032;-63
2023/06/20 08:28:37;;;;;;;3.38;2.83;;;27.80;44.30;;;;;;5046447;28;20316;-62
2023/06/20 08:31:04;;;;;;;3.05;2.72;;;27.80;44.40;;;;;;5047843;28;20032;-60
2023/06/20 08:33:30;;;;;;;2.67;2.47;;;27.80;44.40;;;;;;5046014;28;20028;-64
2023/06/20 08:35:56;;;;;;;2.50;2.30;;;27.80;44.40;;;;;;5046977;28;20102;-61
2023/06/20 08:38:22;;;;;;;2.58;2.38;;;27.80;44.40;;;;;;5027906;28;20479;-64
2023/06/20 08:40:48;;;;;;;3.03;2.58;;;27.80;44.50;;;;;;5046698;28;20079;-61
2023/06/20 08:43:18;;;;;;;3.45;2.90;;;27.80;44.50;;;;;;5046528;28;20097;-63
2023/06/20 08:45:44;;;;;;;3.65;2.60;;;27.80;44.50;;;;;;5048882;28;20044;-61
2023/06/20 08:48:10;;;;;;;3.53;2.95;;;27.80;44.50;;;;;;5046114;28;20442;-61
2023/06/20 08:50:37;;;;;;;2.95;2.63;;;27.90;44.60;;;;;;5047786;28;20167;-61
2023/06/20 08:53:06;;;;;;;2.97;2.67;;;27.90;44.60;;;;;;5046628;28;20033;-60
2023/06/20 08:55:35;;;;;;;3.80;2.97;;;27.90;44.60;;;;;;5046709;28;20187;-61
2023/06/20 08:58:01;;;;;;;2.53;2.20;;;27.90;44.60;;;;;;5029286;28;20040;-64
2023/06/20 09:00:27;;;;;;;2.70;2.50;;;27.90;44.60;;;;;;5047517;28;20293;-62
2023/06/20 09:02:54;;;;;;;2.70;2.45;;;27.90;44.60;;;;;;5026661;28;20043;-63
2023/06/20 09:05:20;;;;;;;2.75;2.55;;;27.90;44.50;;;;;;5045071;28;20024;-62
2023/06/20 09:07:47;;;;;;;2.83;2.10;;;27.90;44.50;;;;;;5029109;28;20032;-60
2023/06/20 09:10:17;;;;;;;2.92;2.63;;;27.90;44.40;;;;;;5046784;28;20468;-62
2023/06/20 09:12:47;;;;;;;2.63;2.42;;;27.90;44.50;;;;;;5046363;28;20028;-62
2023/06/20 09:15:20;;;;;;;2.50;2.30;;;27.90;44.50;;;;;;5028676;28;20412;-62
2023/06/20 09:17:51;;;;;;;2.30;2.10;;;27.90;44.40;;;;;;5042559;28;20122;-62
2023/06/20 09:20:17;;;;;;;2.42;2.13;;;27.90;44.40;;;;;;5044314;28;20025;-61
2023/06/20 09:22:43;;;;;;;2.90;2.50;;;27.90;44.40;;;;;;5043927;28;20052;-61
2023/06/20 09:25:11;;;;;;;3.33;2.65;;;27.90;44.50;;;;;;5044112;28;20455;-61
2023/06/20 09:27:41;;;;;;;2.50;2.30;;;27.90;44.50;;;;;;5026581;28;20064;-60
2023/06/20 09:30:08;;;;;;;2.88;2.15;;;28.00;44.60;;;;;;5046712;28;20343;-61
2023/06/20 09:32:42;;;;;;;2.40;2.17;;;28.00;44.60;;;;;;5037621;28;20040;-62
2023/06/20 09:35:10;;;;;;;2.78;2.55;;;28.00;44.80;;;;;;5038119;28;20093;-61
2023/06/20 09:37:49;;;;;;;2.50;2.30;;;28.00;44.60;;;;;;5040885;28;20037;-64
2023/06/20 09:40:16;;;;;;;2.40;2.20;;;28.00;44.60;;;;;;5035379;28;20175;-61
2023/06/20 09:42:43;;;;;;;2.80;2.30;;;28.00;44.60;;;;;;5020273;28;20094;-62
2023/06/20 09:45:12;;;;;;;5.60;2.47;;;28.00;44.70;;;;;;5023532;28;20040;-62
2023/06/20 09:47:39;;;;;;;2.78;2.22;;;28.00;44.70;;;;;;5042261;28;20047;-60
2023/06/20 09:50:15;;;;;;;2.60;2.28;;;28.00;44.70;;;;;;5041307;28;20025;-64
2023/06/20 09:52:42;;;;;;;2.72;2.20;;;28.00;44.80;;;;;;5039840;28;20430;-61
2023/06/20 09:55:11;;;;;;;2.78;2.25;;;28.00;44.80;;;;;;5035862;28;20081;-61
2023/06/20 09:57:42;;;;;;;2.55;2.33;;;28.10;44.90;;;;;;5039663;28;20345;-61
2023/06/20 10:00:13;;;;;;;2.30;2.10;;;28.10;44.90;;;;;;5043015;28;20381;-62
2023/06/20 10:02:44;;;;;;;3.67;2.38;;;28.10;44.90;;;;;;5035240;28;20029;-60
2023/06/20 10:05:19;;;;;;;2.38;2.17;;;28.10;44.90;;;;;;5041971;28;20033;-61
2023/06/20 10:07:47;;;;;;;2.42;2.08;;;28.10;44.80;;;;;;5036247;28;20135;-62
2023/06/20 10:10:14;;;;;;;3.13;2.55;;;28.10;44.70;;;;;;5016618;28;20036;-61
2023/06/20 10:12:42;;;;;;;2.80;2.60;;;28.10;44.70;;;;;;5024448;28;20047;-62
2023/06/20 10:15:09;;;;;;;2.60;2.40;;;28.10;44.70;;;;;;5033654;28;20118;-62
2023/06/20 10:17:48;;;;;;;2.40;2.17;;;28.10;44.80;;;;;;5039810;28;20052;-62
2023/06/20 10:20:40;;;;;;;2.70;2.50;;;28.10;44.90;;;;;;5037801;28;20044;-62
2023/06/20 10:23:10;;;;;;;2.47;2.13;;;28.10;44.90;;;;;;5037410;28;20064;-63
2023/06/20 10:25:51;;;;;;;2.50;2.30;;;28.10;44.90;;;;;;5040289;28;20091;-59
2023/06/20 10:28:20;;;;;;;3.17;2.20;;;28.10;44.90;;;;;;5020758;28;20040;-63
2023/06/20 10:30:49;;;;;;;2.17;1.95;;;28.20;45.20;;;;;;5038878;28;20040;-61
2023/06/20 10:33:19;;;;;;;2.80;2.42;;;28.10;45.20;;;;;;5022100;28;20112;-63
2023/06/20 10:35:56;;;;;;;2.83;2.53;;;28.20;45.40;;;;;;5021568;28;20425;-62
2023/06/20 10:38:23;;;;;;;3.03;2.10;;;28.20;45.50;;;;;;5015483;28;20037;-62
2023/06/20 10:41:14;;;;;;;2.85;2.50;;;28.20;45.50;;;;;;5040054;28;20111;-60
2023/06/20 10:43:48;;;;;;;2.70;2.40;;;28.20;45.60;;;;;;5037743;28;20048;-62
2023/06/20 10:46:14;;;;;;;2.80;2.60;;;28.20;45.70;;;;;;5035706;28;20100;-62
2023/06/20 10:48:40;;;;;;;2.83;2.42;;;28.20;45.80;;;;;;5041644;28;20044;-60
2023/06/20 10:51:09;;;;;;;2.45;2.22;;;28.20;46.00;;;;;;5038581;28;20021;-59
2023/06/20 10:53:35;;;;;;;2.60;2.20;;;28.20;46.10;;;;;;5032811;28;20093;-61
2023/06/20 10:56:01;;;;;;;3.08;2.00;;;28.30;46.10;;;;;;5039720;28;20033;-62
2023/06/20 10:58:27;;;;;;;2.22;2.03;;;28.30;46.20;;;;;;5042690;28;20060;-60
2023/06/20 11:00:53;;;;;;;3.70;2.03;;;28.30;46.20;;;;;;5041435;28;20128;-60
2023/06/20 11:03:23;;;;;;;2.75;2.30;;;28.40;46.20;;;;;;5034718;28;20049;-57
2023/06/20 11:05:50;;;;;;;2.72;2.10;;;28.40;46.20;;;;;;5034865;28;21408;-60
2023/06/20 11:08:26;;;;;;;2.58;2.10;;;28.40;46.20;;;;;;5042034;28;20021;-59
2023/06/20 11:10:53;;;;;;;2.20;2.00;;;28.50;46.20;;;;;;5035350;28;20329;-62
2023/06/20 11:13:20;;;;;;;2.28;1.80;;;28.50;46.10;;;;;;5038003;28;20127;-61
2023/06/20 11:15:46;;;;;;;2.15;1.95;;;28.50;46.00;;;;;;5040039;28;20191;-58
2023/06/20 11:18:12;;;;;;;2.75;1.80;;;28.60;46.00;;;;;;5039502;28;20112;-62
2023/06/20 11:20:40;;;;;;;2.15;1.80;;;28.60;45.90;;;;;;5039262;28;20170;-60
2023/06/20 11:23:12;;;;;;;2.10;1.63;;;28.60;45.40;;;;;;5037737;28;20081;-60
2023/06/20 11:25:40;;;;;;;2.20;2.00;;;28.60;45.90;;;;;;5037474;28;20113;-60
2023/06/20 11:28:10;;;;;;;2.28;2.08;;;28.60;45.80;;;;;;5034991;28;20067;-61
2023/06/20 11:30:38;;;;;;;5.72;2.25;;;28.70;45.90;;;;;;5035414;28;20029;-61
2023/06/20 11:33:10;;;;;;;2.40;2.20;;;28.70;46.10;;;;;;5017741;28;20018;-59
2023/06/20 11:35:43;;;;;;;3.40;2.50;;;28.60;46.20;;;;;;5037677;28;20056;-63
2023/06/20 11:38:19;;;;;;;2.70;2.17;;;28.70;46.30;;;;;;5035531;28;20158;-60
2023/06/20 11:40:46;;;;;;;3.58;2.13;;;28.60;46.30;;;;;;5038043;28;20519;-60
2023/06/20 11:43:22;;;;;;;2.80;2.38;;;28.60;46.40;;;;;;5007545;28;20053;-61
2023/06/20 11:45:48;;;;;;;3.50;2.42;;;28.60;46.30;;;;;;4997187;28;20030;-62
2023/06/20 11:48:15;;;;;;;2.30;2.10;;;28.60;46.30;;;;;;5000926;28;20033;-62
2023/06/20 11:50:54;;;;;;;2.75;2.30;;;28.60;46.40;;;;;;5000076;28;20229;-61
2023/06/20 11:53:25;;;;;;;2.60;2.40;;;28.60;46.40;;;;;;4999460;28;20074;-62
2023/06/20 11:55:53;;;;;;;2.72;2.20;;;28.60;46.40;;;;;;5000962;28;20038;-61
2023/06/20 11:58:19;;;;;;;3.47;2.67;;;28.60;46.40;;;;;;5001131;28;20099;-60
2023/06/20 12:00:57;;;;;;;2.55;2.35;;;28.60;46.50;;;;;;4996976;28;20037;-62
2023/06/20 12:03:23;;;;;;;3.30;2.35;;;28.60;46.50;;;;;;5000997;28;20318;-60
2023/06/20 12:05:49;;;;;;;4.00;2.42;;;28.60;46.40;;;;;;5001077;28;20038;-60
2023/06/20 12:08:15;;;;;;;7.20;2.40;;;28.50;46.20;;;;;;5000700;28;20326;-60
2023/06/20 12:10:49;;;;;;;2.67;2.20;;;28.50;46.30;;;;;;5004457;28;20298;-62
2023/06/20 12:13:15;;;;;;;2.30;2.10;;;28.50;46.20;;;;;;4995660;28;20097;-59
2023/06/20 12:15:44;;;;;;;2.42;2.22;;;28.50;46.20;;;;;;4996427;28;20127;-59
2023/06/20 12:18:10;;;;;;;2.83;1.80;;;28.60;46.20;;;;;;5001532;28;20057;-61
2023/06/20 12:20:36;;;;;;;1.73;1.63;;;28.60;46.00;;;;;;4999012;28;20069;-62
2023/06/20 12:23:03;;;;;;;2.20;2.00;;;28.60;45.90;;;;;;4998813;28;20117;-62
2023/06/20 12:25:28;;;;;;;2.90;2.25;;;28.60;46.00;;;;;;4998590;28;20096;-60
2023/06/20 12:27:54;;;;;;;4.70;2.60;;;28.60;46.00;;;;;;5003114;28;20490;-66
2023/06/20 12:30:20;;;;;;;3.08;2.17;;;28.60;45.80;;;;;;5004890;28;20018;-64
2023/06/20 12:32:46;;;;;;;2.78;2.15;;;28.50;45.70;;;;;;5005768;28;20022;-65
2023/06/20 12:35:12;;;;;;;2.75;2.30;;;28.30;45.60;;;;;;5003053;28;20146;-63
2023/06/20 12:37:40;;;;;;;3.00;2.50;;;28.10;45.60;;;;;;5001700;28;20041;-65
2023/06/20 12:40:06;;;;;;;3.20;2.50;;;27.90;45.80;;;;;;4981847;28;20026;-65
2023/06/20 12:42:35;;;;;;;2.50;2.30;;;27.70;46.10;;;;;;4999737;28;20030;-64
2023/06/20 12:45:01;;;;;;;3.95;2.42;;;27.50;46.40;;;;;;5040470;28;20347;-64
2023/06/20 12:47:28;;;;;;;3.85;2.20;;;27.40;45.90;;;;;;5020141;28;20427;-66
2023/06/20 12:49:56;;;;;;;2.63;2.42;;;27.20;45.50;;;;;;5040256;28;20017;-64
2023/06/20 12:52:22;;;;;;;2.80;2.50;;;27.10;45.30;;;;;;5039478;28;20037;-65
2023/06/20 12:54:48;;;;;;;3.00;2.55;;;27.00;45.40;;;;;;5040485;28;20038;-62